createdAt,value
2019-04-22T00:00:53.565Z,9.81
2019-04-22T00:03:22.675Z,9.80
2019-04-22T00:06:14.609Z,9.77
2019-04-22T00:08:49.220Z,9.72
2019-04-22T00:11:26.106Z,9.69
2019-04-22T00:16:22.620Z,9.65
2019-04-22T00:19:00.982Z,9.62
2019-04-22T00:23:53.104Z,9.53
2019-04-22T00:26:23.446Z,9.51
2019-04-22T00:31:49.412Z,9.47
2019-04-22T00:34:16.698Z,9.47
2019-04-22T00:36:52.655Z,9.47
2019-04-22T00:39:28.365Z,9.47
2019-04-22T00:41:55.245Z,9.46
2019-04-22T00:44:29.815Z,9.44
2019-04-22T00:46:54.129Z,9.43
2019-04-22T00:51:58.324Z,9.39
2019-04-22T00:54:31.125Z,9.37
2019-04-22T00:56:59.142Z,9.33
2019-04-22T00:59:23.590Z,9.28
2019-04-22T01:02:05.644Z,9.22
2019-04-22T01:04:34.570Z,9.18
2019-04-22T01:06:57.550Z,9.14
2019-04-22T01:09:30.058Z,9.10
2019-04-22T01:12:00.617Z,9.06
2019-04-22T01:14:28.280Z,9.04
2019-04-22T01:17:00.086Z,9.01
2019-04-22T01:19:38.748Z,8.99
2019-04-22T01:22:06.440Z,8.98
2019-04-22T01:24:32.348Z,8.97
2019-04-22T01:26:58.196Z,9.00
2019-04-22T01:29:26.204Z,8.98
2019-04-22T01:31:47.361Z,8.97
2019-04-22T01:34:28.891Z,8.95
2019-04-22T01:37:02.934Z,8.91
2019-04-22T01:39:44.376Z,8.89
2019-04-22T01:42:12.159Z,8.86
2019-04-22T01:44:47.122Z,8.83
2019-04-22T01:47:22.706Z,8.80
2019-04-22T01:49:46.387Z,8.75
2019-04-22T01:52:18.629Z,8.69
2019-04-22T01:54:48.553Z,8.66
2019-04-22T01:57:20.900Z,8.62
2019-04-22T01:59:40.467Z,8.58
2019-04-22T02:02:27.098Z,8.56
2019-04-22T02:04:53.217Z,8.52
2019-04-22T02:07:28.071Z,8.48
2019-04-22T02:09:49.720Z,8.43
2019-04-22T02:14:52.407Z,8.34
2019-04-22T02:17:25.254Z,8.31
2019-04-22T02:19:57.612Z,8.30
2019-04-22T02:22:42.860Z,8.29
2019-04-22T02:24:58.860Z,8.26
2019-04-22T02:27:32.544Z,8.29
2019-04-22T02:29:52.317Z,8.29
2019-04-22T02:35:03.686Z,8.32
2019-04-22T02:37:30.436Z,8.32
2019-04-22T02:40:03.664Z,8.31
2019-04-22T02:42:24.278Z,8.29
2019-04-22T02:45:18.460Z,8.25
2019-04-22T02:47:31.581Z,8.23
2019-04-22T02:50:07.430Z,8.20
2019-04-22T02:57:47.417Z,8.13
2019-04-22T03:00:18.422Z,8.09
2019-04-22T03:05:22.877Z,8.05
2019-04-22T03:07:41.136Z,8.01
2019-04-22T03:10:26.703Z,8.00
2019-04-22T03:15:07.918Z,7.93
2019-04-22T03:17:49.437Z,7.90
2019-04-22T03:20:09.405Z,7.87
2019-04-22T03:22:53.433Z,7.85
2019-04-22T03:27:42.799Z,7.80
2019-04-22T03:35:37.154Z,7.76
2019-04-22T03:37:52.643Z,7.75
2019-04-22T03:55:22.959Z,7.77
2019-04-22T04:00:35.539Z,7.72
2019-04-22T04:05:45.350Z,7.67
2019-04-22T04:08:20.156Z,7.64
2019-04-22T04:17:56.816Z,7.51
2019-04-22T04:20:36.439Z,7.48
2019-04-22T04:23:07.866Z,7.46
2019-04-22T04:28:24.271Z,7.45
2019-04-22T04:33:05.303Z,7.48
2019-04-22T04:35:40.522Z,7.50
2019-04-22T04:48:14.482Z,7.59
2019-04-22T04:50:55.243Z,7.62
2019-04-22T04:53:12.867Z,7.65
2019-04-22T04:55:35.155Z,7.70
2019-04-22T04:58:25.047Z,7.76
2019-04-22T05:03:21.348Z,7.88
2019-04-22T05:05:52.225Z,7.94
2019-04-22T05:13:13.508Z,8.16
2019-04-22T05:16:03.419Z,8.21
2019-04-22T05:21:09.568Z,8.35
2019-04-22T05:23:25.021Z,8.42
2019-04-22T05:25:40.849Z,8.51
2019-04-22T05:28:20.204Z,8.60
2019-04-22T05:30:39.578Z,8.70
2019-04-22T05:33:19.035Z,8.81
2019-04-22T05:35:46.347Z,8.94
2019-04-22T05:40:40.886Z,9.20
2019-04-22T05:43:22.635Z,9.33
2019-04-22T05:45:50.966Z,9.46
2019-04-22T05:48:18.919Z,9.61
2019-04-22T05:50:52.657Z,9.74
2019-04-22T05:53:20.128Z,9.89
2019-04-22T05:56:17.148Z,10.03
2019-04-22T05:58:25.847Z,10.21
2019-04-22T06:03:46.248Z,10.61
2019-04-22T06:06:15.064Z,10.83
2019-04-22T06:08:46.506Z,11.12
2019-04-22T06:11:17.342Z,11.93
2019-04-22T06:13:38.902Z,13.62
2019-04-22T06:16:20.475Z,15.81
2019-04-22T06:18:46.999Z,17.91
2019-04-22T06:21:20.264Z,18.76
2019-04-22T06:31:24.460Z,22.93
2019-04-22T06:33:56.480Z,23.97
2019-04-22T06:36:27.505Z,24.97
2019-04-22T06:39:10.549Z,25.99
2019-04-22T06:41:27.393Z,26.73
2019-04-22T06:43:58.467Z,27.20
2019-04-22T06:46:27.453Z,27.95
2019-04-22T06:48:54.764Z,28.43
2019-04-22T06:51:27.038Z,28.67
2019-04-22T06:53:59.135Z,28.98
2019-04-22T06:56:23.768Z,29.28
2019-04-22T06:59:14.715Z,29.54
2019-04-22T07:01:27.601Z,29.88
2019-04-22T07:03:57.034Z,30.17
2019-04-22T07:11:23.732Z,30.72
2019-04-22T07:14:02.964Z,30.61
2019-04-22T07:16:32.078Z,30.74
2019-04-22T07:19:01.921Z,30.87
2019-04-22T07:21:33.577Z,30.84
2019-04-22T07:24:22.790Z,30.36
2019-04-22T07:26:33.200Z,30.58
2019-04-22T07:29:04.178Z,30.40
2019-04-22T07:31:40.976Z,30.60
2019-04-22T07:34:16.320Z,30.51
2019-04-22T07:39:05.738Z,30.04
2019-04-22T07:41:37.889Z,29.09
2019-04-22T07:46:46.523Z,28.07
2019-04-22T07:49:10.716Z,27.92
2019-04-22T07:51:36.617Z,27.19
2019-04-22T07:56:44.011Z,25.36
2019-04-22T07:59:13.927Z,25.08
2019-04-22T08:01:35.490Z,24.54
2019-04-22T08:06:47.815Z,24.25
2019-04-22T08:09:21.521Z,24.17
2019-04-22T08:11:51.595Z,24.33
2019-04-22T08:14:21.803Z,24.34
2019-04-22T08:16:51.942Z,24.24
2019-04-22T08:19:20.355Z,24.13
2019-04-22T08:24:22.585Z,22.95
2019-04-22T08:26:54.783Z,23.13
2019-04-22T08:29:35.436Z,22.52
2019-04-22T08:31:56.594Z,22.83
2019-04-22T08:34:27.442Z,23.28
2019-04-22T08:37:26.225Z,22.98
2019-04-22T08:39:29.971Z,23.46
2019-04-22T08:41:55.773Z,23.35
2019-04-22T08:44:40.170Z,22.81
2019-04-22T08:47:07.112Z,22.75
2019-04-22T08:49:39.467Z,22.95
2019-04-22T08:52:01.030Z,22.75
2019-04-22T08:54:32.491Z,22.92
2019-04-22T08:57:07.241Z,23.16
2019-04-22T08:59:28.192Z,23.07
2019-04-22T09:02:09.308Z,23.48
2019-04-22T09:04:32.275Z,23.18
2019-04-22T09:07:12.712Z,23.30
2019-04-22T09:09:39.365Z,23.38
2019-04-22T09:12:12.621Z,23.45
2019-04-22T09:14:40.494Z,23.43
2019-04-22T09:17:13.345Z,23.53
2019-04-22T09:19:35.208Z,23.39
2019-04-22T09:22:15.689Z,23.31
2019-04-22T09:24:44.149Z,23.53
2019-04-22T09:27:19.197Z,23.63
2019-04-22T09:29:43.023Z,23.22
2019-04-22T09:34:46.937Z,23.44
2019-04-22T09:37:21.011Z,23.24
2019-04-22T09:39:51.812Z,23.81
2019-04-22T09:42:17.393Z,24.00
2019-04-22T09:45:02.065Z,24.28
2019-04-22T09:47:45.308Z,23.59
2019-04-22T09:49:55.433Z,24.00
2019-04-22T09:52:22.161Z,24.30
2019-04-22T09:55:00.271Z,24.02
2019-04-22T09:57:24.649Z,23.83
2019-04-22T10:00:00.639Z,23.75
2019-04-22T10:05:00.068Z,23.57
2019-04-22T10:07:25.905Z,23.94
2019-04-22T10:10:03.210Z,24.37
2019-04-22T10:12:33.217Z,24.44
2019-04-22T10:14:53.968Z,24.22
2019-04-22T10:17:29.530Z,24.03
2019-04-22T10:20:00.602Z,24.28
2019-04-22T10:25:05.093Z,23.62
2019-04-22T10:27:33.935Z,23.74
2019-04-22T10:30:03.104Z,23.52
2019-04-22T10:32:39.966Z,23.95
2019-04-22T10:35:08.203Z,24.01
2019-04-22T10:37:34.288Z,24.14
2019-04-22T10:40:07.725Z,24.02
2019-04-22T10:42:43.144Z,23.94
2019-04-22T10:45:14.475Z,23.84
2019-04-22T10:47:43.478Z,23.78
2019-04-22T10:50:14.461Z,23.87
2019-04-22T10:52:43.628Z,23.94
2019-04-22T10:55:13.783Z,23.98
2019-04-22T10:57:44.235Z,24.15
2019-04-22T11:00:13.728Z,24.13
2019-04-22T11:02:43.767Z,24.48
2019-04-22T11:05:14.344Z,24.46
2019-04-22T11:07:51.456Z,24.61
2019-04-22T11:10:27.361Z,24.79
2019-04-22T11:12:45.217Z,24.34
2019-04-22T11:15:15.843Z,24.34
2019-04-22T11:17:44.844Z,24.19
2019-04-22T11:20:15.491Z,24.36
2019-04-22T11:22:46.647Z,24.40
2019-04-22T11:25:16.091Z,24.31
2019-04-22T11:27:45.114Z,24.30
2019-04-22T11:30:20.027Z,24.45
2019-04-22T11:32:50.692Z,24.22
2019-04-22T11:35:19.588Z,24.11
2019-04-22T11:37:48.718Z,24.34
2019-04-22T11:40:26.431Z,24.42
2019-04-22T11:42:50.186Z,24.34
2019-04-22T11:45:21.530Z,24.15
2019-04-22T11:47:51.093Z,24.11
2019-04-22T11:50:21.874Z,24.03
2019-04-22T11:52:51.013Z,24.15
2019-04-22T11:55:20.230Z,24.10
2019-04-22T11:57:49.858Z,24.12
2019-04-22T12:00:27.033Z,24.22
2019-04-22T12:02:56.764Z,24.10
2019-04-22T12:05:28.140Z,24.33
2019-04-22T12:07:57.329Z,24.16
2019-04-22T12:10:34.776Z,24.19
2019-04-22T12:12:57.843Z,24.05
2019-04-22T12:15:26.889Z,24.05
2019-04-22T12:17:57.283Z,24.00
2019-04-22T12:20:27.582Z,24.19
2019-04-22T12:22:56.807Z,23.97
2019-04-22T12:25:36.138Z,23.99
2019-04-22T12:27:57.059Z,23.96
2019-04-22T12:30:27.722Z,24.19
2019-04-22T12:32:58.066Z,24.00
2019-04-22T12:35:28.372Z,24.18
2019-04-22T12:38:01.509Z,24.22
2019-04-22T12:40:40.550Z,24.25
2019-04-22T12:42:59.476Z,24.38
2019-04-22T12:45:30.037Z,24.40
2019-04-22T12:48:00.011Z,24.28
2019-04-22T12:50:33.819Z,24.24
2019-04-22T12:53:06.900Z,24.30
2019-04-22T12:55:32.287Z,24.28
2019-04-22T12:58:02.819Z,24.32
2019-04-22T13:00:32.410Z,24.22
2019-04-22T13:03:01.245Z,24.13
2019-04-22T13:05:31.344Z,24.19
2019-04-22T13:08:01.904Z,24.18
2019-04-22T13:10:41.687Z,24.09
2019-04-22T13:13:02.805Z,24.25
2019-04-22T13:15:32.984Z,24.32
2019-04-22T13:18:12.859Z,24.44
2019-04-22T13:20:32.498Z,24.49
2019-04-22T13:23:02.110Z,24.55
2019-04-22T13:25:32.419Z,24.49
2019-04-22T13:28:02.908Z,24.62
2019-04-22T13:30:32.593Z,24.58
2019-04-22T13:33:02.845Z,24.60
2019-04-22T13:35:32.000Z,24.51
2019-04-22T13:38:01.222Z,24.51
2019-04-22T13:40:30.823Z,24.43
2019-04-22T13:43:00.753Z,24.48
2019-04-22T13:45:29.805Z,24.52
2019-04-22T13:48:18.358Z,24.57
2019-04-22T13:51:03.468Z,24.49
2019-04-22T13:56:08.767Z,24.37
2019-04-22T13:58:14.048Z,24.29
2019-04-22T14:00:34.448Z,24.35
2019-04-22T14:03:24.636Z,24.43
2019-04-22T14:05:55.010Z,24.38
2019-04-22T14:08:24.982Z,24.30
2019-04-22T14:10:54.409Z,24.28
2019-04-22T14:13:23.846Z,24.28
2019-04-22T14:15:53.099Z,24.12
2019-04-22T14:18:23.191Z,24.12
2019-04-22T14:20:52.108Z,24.17
2019-04-22T14:23:22.432Z,24.11
2019-04-22T14:25:52.798Z,24.12
2019-04-22T14:28:23.879Z,24.18
2019-04-22T14:30:54.634Z,24.15
2019-04-22T14:33:24.398Z,24.08
2019-04-22T14:35:53.524Z,24.03
2019-04-22T14:38:23.806Z,23.84
2019-04-22T14:40:54.432Z,23.83
2019-04-22T14:43:55.213Z,23.81
2019-04-22T14:46:33.534Z,23.79
2019-04-22T14:48:49.612Z,23.72
2019-04-22T14:51:11.567Z,23.69
2019-04-22T14:53:44.776Z,23.57
2019-04-22T14:55:58.182Z,23.47
2019-04-22T14:58:28.821Z,23.51
2019-04-22T15:00:59.135Z,23.46
2019-04-22T15:03:28.126Z,23.27
2019-04-22T15:05:57.958Z,23.30
2019-04-22T15:08:27.051Z,23.21
2019-04-22T15:10:56.038Z,23.15
2019-04-22T15:13:25.354Z,23.10
2019-04-22T15:16:21.902Z,23.04
2019-04-22T15:19:15.989Z,22.90
2019-04-22T15:21:47.147Z,22.94
2019-04-22T15:24:27.455Z,22.92
2019-04-22T15:26:58.548Z,22.90
2019-04-22T15:29:27.701Z,22.86
2019-04-22T15:31:57.641Z,22.76
2019-04-22T15:34:28.191Z,22.73
2019-04-22T15:36:58.073Z,22.69
2019-04-22T15:39:27.359Z,22.57
2019-04-22T15:42:07.451Z,22.40
2019-04-22T15:44:28.047Z,22.08
2019-04-22T15:46:57.410Z,21.79
2019-04-22T15:49:27.874Z,21.63
2019-04-22T15:51:59.410Z,21.59
2019-04-22T15:54:27.809Z,21.52
2019-04-22T15:56:56.933Z,21.61
2019-04-22T15:59:45.036Z,21.53
2019-04-22T16:01:59.840Z,21.48
2019-04-22T16:04:28.421Z,21.29
2019-04-22T16:06:58.949Z,21.27
2019-04-22T16:09:28.986Z,21.38
2019-04-22T16:12:10.994Z,21.30
2019-04-22T16:14:36.622Z,21.25
2019-04-22T16:16:59.179Z,21.08
2019-04-22T16:19:28.181Z,21.03
2019-04-22T16:22:05.004Z,20.83
2019-04-22T16:24:54.136Z,20.72
2019-04-22T16:27:26.307Z,20.53
2019-04-22T16:29:55.451Z,20.35
2019-04-22T16:32:25.508Z,20.19
2019-04-22T16:34:54.694Z,20.11
2019-04-22T16:37:24.939Z,20.10
2019-04-22T16:39:54.751Z,20.05
2019-04-22T16:42:33.178Z,20.04
2019-04-22T16:44:55.462Z,20.00
2019-04-22T16:47:25.708Z,19.93
2019-04-22T16:49:55.323Z,19.97
2019-04-22T16:52:24.298Z,19.89
2019-04-22T16:54:53.088Z,19.73
2019-04-22T16:57:21.933Z,19.67
2019-04-22T16:59:50.848Z,19.67
2019-04-22T17:02:56.035Z,19.59
2019-04-22T17:05:37.978Z,19.50
2019-04-22T17:08:08.269Z,19.43
2019-04-22T17:10:37.902Z,19.37
2019-04-22T17:13:11.915Z,19.28
2019-04-22T17:15:39.785Z,19.23
2019-04-22T17:18:09.577Z,19.12
2019-04-22T17:20:38.680Z,19.15
2019-04-22T17:23:07.544Z,19.11
2019-04-22T17:25:36.380Z,19.04
2019-04-22T17:28:05.738Z,19.02
2019-04-22T17:30:35.894Z,18.95
2019-04-22T17:33:05.253Z,18.87
2019-04-22T17:35:34.145Z,18.85
2019-04-22T17:38:12.685Z,18.79
2019-04-22T17:40:52.190Z,18.73
2019-04-22T17:43:37.794Z,18.61
2019-04-22T17:46:04.509Z,18.58
2019-04-22T17:48:54.187Z,18.46
2019-04-22T17:51:29.901Z,18.46
2019-04-22T17:53:59.865Z,18.39
2019-04-22T17:56:27.642Z,18.24
2019-04-22T17:58:58.762Z,18.17
2019-04-22T18:01:25.220Z,18.12
2019-04-22T18:03:42.340Z,18.11
2019-04-22T18:06:17.581Z,17.95
2019-04-22T18:08:58.390Z,17.92
2019-04-22T18:11:33.600Z,17.82
2019-04-22T18:14:16.820Z,17.76
2019-04-22T18:16:32.630Z,17.73
2019-04-22T18:19:02.804Z,17.68
2019-04-22T18:21:27.486Z,17.70
2019-04-22T18:23:52.806Z,17.66
2019-04-22T18:26:24.577Z,17.60
2019-04-22T18:29:02.828Z,17.50
2019-04-22T18:31:27.108Z,17.43
2019-04-22T18:33:54.547Z,17.34
2019-04-22T18:36:29.195Z,17.29
2019-04-22T18:39:11.175Z,17.25
2019-04-22T18:41:36.085Z,17.21
2019-04-22T18:44:06.154Z,17.13
2019-04-22T18:46:37.109Z,17.03
2019-04-22T18:49:08.163Z,16.99
2019-04-22T18:51:45.330Z,16.99
2019-04-22T18:54:46.396Z,16.93
2019-04-22T18:57:15.680Z,16.82
2019-04-22T18:59:34.136Z,16.79
2019-04-22T19:02:06.503Z,16.68
2019-04-22T19:04:40.992Z,16.64
2019-04-22T19:07:31.102Z,16.55
2019-04-22T19:10:10.259Z,16.44
2019-04-22T19:12:28.518Z,16.36
2019-04-22T19:15:01.668Z,16.33
2019-04-22T19:17:35.065Z,16.25
2019-04-22T19:20:05.481Z,16.17
2019-04-22T19:22:29.852Z,16.12
2019-04-22T19:24:54.645Z,16.05
2019-04-22T19:27:24.803Z,16.01
2019-04-22T19:29:57.293Z,15.95
2019-04-22T19:32:35.071Z,15.92
2019-04-22T19:34:52.989Z,15.90
2019-04-22T19:37:28.450Z,15.86
2019-04-22T19:40:11.630Z,15.81
2019-04-22T19:42:38.738Z,15.80
2019-04-22T19:45:04.183Z,15.76
2019-04-22T19:47:38.713Z,15.77
2019-04-22T19:52:53.217Z,15.76
2019-04-22T19:55:12.725Z,15.66
2019-04-22T19:57:41.936Z,15.69
2019-04-22T20:00:33.969Z,15.61
2019-04-22T20:03:21.711Z,15.56
2019-04-22T20:05:53.034Z,15.48
2019-04-22T20:08:22.373Z,15.40
2019-04-22T20:10:52.250Z,15.33
2019-04-22T20:13:28.769Z,15.27
2019-04-22T20:15:45.043Z,15.28
2019-04-22T20:20:58.602Z,15.20
2019-04-22T20:23:22.909Z,15.14
2019-04-22T20:25:52.032Z,15.06
2019-04-22T20:28:32.679Z,14.99
2019-04-22T20:30:56.184Z,14.92
2019-04-22T20:33:36.916Z,14.88
2019-04-22T20:36:03.824Z,14.79
2019-04-22T20:38:32.639Z,14.79
2019-04-22T20:41:01.429Z,14.70
2019-04-22T20:43:44.872Z,14.69
2019-04-22T20:46:06.908Z,14.66
2019-04-22T20:48:40.796Z,14.57
2019-04-22T20:51:11.354Z,14.56
2019-04-22T20:53:44.076Z,14.54
2019-04-22T20:56:09.913Z,14.47
2019-04-22T20:58:46.287Z,14.36
2019-04-22T21:01:05.155Z,14.33
2019-04-22T21:03:33.605Z,14.20
2019-04-22T21:06:10.276Z,14.09
2019-04-22T21:08:52.373Z,13.95
2019-04-22T21:11:14.318Z,13.82
2019-04-22T21:13:40.972Z,13.77
2019-04-22T21:16:21.749Z,13.67
2019-04-22T21:18:43.774Z,13.57
2019-04-22T21:21:20.304Z,13.52
2019-04-22T21:23:45.856Z,13.40
2019-04-22T21:26:24.047Z,13.34
2019-04-22T21:28:53.835Z,13.31
2019-04-22T21:31:33.944Z,13.23
2019-04-22T21:33:59.738Z,13.23
2019-04-22T21:36:51.120Z,13.14
2019-04-22T21:38:59.130Z,13.10
2019-04-22T21:41:32.035Z,12.95
2019-04-22T21:44:05.490Z,12.92
2019-04-22T21:46:33.551Z,12.93
2019-04-22T21:49:05.826Z,12.89
2019-04-22T21:54:11.916Z,12.79
2019-04-22T21:57:02.523Z,12.79
2019-04-22T21:59:17.807Z,12.72
2019-04-22T22:02:01.689Z,12.73
2019-04-22T22:04:25.304Z,12.66
2019-04-22T22:06:47.901Z,12.62
2019-04-22T22:09:31.230Z,12.61
2019-04-22T22:11:57.783Z,12.59
2019-04-22T22:14:28.981Z,12.54
2019-04-22T22:16:54.741Z,12.54
2019-04-22T22:19:34.497Z,12.51
2019-04-22T22:22:13.533Z,12.48
2019-04-22T22:24:41.645Z,12.46
2019-04-22T22:27:04.948Z,12.38
2019-04-22T22:30:05.614Z,12.39
2019-04-22T22:32:11.784Z,12.37
2019-04-22T22:34:36.142Z,12.35
2019-04-22T22:37:00.273Z,12.33
2019-04-22T22:39:27.559Z,12.29
2019-04-22T22:41:47.935Z,12.25
2019-04-22T22:44:25.124Z,12.27
2019-04-22T22:47:03.564Z,12.25
2019-04-22T22:49:44.125Z,12.23
2019-04-22T22:52:41.345Z,12.20
2019-04-22T22:54:39.039Z,12.18
2019-04-22T22:57:19.515Z,12.17
2019-04-22T22:59:55.742Z,12.18
2019-04-22T23:02:08.123Z,12.17
2019-04-22T23:04:45.919Z,12.10
2019-04-22T23:07:17.921Z,12.10
2019-04-22T23:09:43.792Z,12.13
2019-04-22T23:12:22.581Z,12.14
2019-04-22T23:14:45.009Z,12.14
2019-04-22T23:17:01.872Z,12.08
2019-04-22T23:19:26.083Z,12.04
2019-04-22T23:22:01.587Z,12.05
2019-04-22T23:24:54.457Z,12.07
2019-04-22T23:27:29.311Z,12.06
2019-04-22T23:30:04.200Z,12.07
2019-04-22T23:32:35.797Z,12.04
2019-04-22T23:35:16.786Z,12.00
2019-04-22T23:37:50.011Z,12.00
2019-04-22T23:43:17.231Z,11.97
2019-04-22T23:45:26.788Z,11.96
2019-04-22T23:47:46.057Z,11.93
2019-04-22T23:50:27.879Z,11.88
2019-04-22T23:52:58.976Z,11.89
2019-04-22T23:55:35.419Z,11.90
2019-04-22T23:58:03.579Z,11.89
